createdAt,value
2023-04-23T00:00:13.272Z,5.10
2023-04-23T00:02:42.486Z,6.07
2023-04-23T00:05:12.845Z,5.47
2023-04-23T00:07:41.041Z,4.43
2023-04-23T00:10:11.462Z,4.22
2023-04-23T00:12:39.783Z,5.93
2023-04-23T00:15:08.596Z,5.10
2023-04-23T00:17:36.103Z,4.18
2023-04-23T00:20:03.656Z,5.28
2023-04-23T00:22:31.155Z,6.78
2023-04-23T00:24:59.083Z,5.32
2023-04-23T00:27:27.980Z,5.45
2023-04-23T00:29:55.499Z,5.55
2023-04-23T00:32:23.519Z,6.50
2023-04-23T00:34:51.014Z,6.82
2023-04-23T00:37:18.632Z,9.65
2023-04-23T00:39:46.105Z,6.53
2023-04-23T00:42:13.803Z,7.20
2023-04-23T00:44:42.911Z,7.07
2023-04-23T00:47:12.186Z,7.80
2023-04-23T00:49:40.229Z,8.70
2023-04-23T00:52:07.718Z,8.25
2023-04-23T00:54:35.212Z,7.97
2023-04-23T00:57:03.626Z,7.78
2023-04-23T00:59:32.581Z,8.15
2023-04-23T01:02:01.801Z,7.80
2023-04-23T01:04:32.921Z,7.60
2023-04-23T01:07:01.514Z,9.02
2023-04-23T01:09:29.283Z,7.85
2023-04-23T01:11:58.609Z,8.35
2023-04-23T01:14:27.264Z,9.30
2023-04-23T01:16:54.817Z,7.35
2023-04-23T01:19:23.696Z,8.60
2023-04-23T01:21:52.980Z,7.75
2023-04-23T01:24:21.835Z,8.07
2023-04-23T01:26:49.351Z,8.75
2023-04-23T01:29:17.234Z,8.35
2023-04-23T01:31:45.769Z,8.52
2023-04-23T01:34:14.167Z,8.30
2023-04-23T01:36:42.554Z,8.68
2023-04-23T01:39:10.276Z,8.27
2023-04-23T01:41:39.572Z,7.68
2023-04-23T01:44:07.288Z,8.75
2023-04-23T01:46:35.181Z,8.18
2023-04-23T01:49:02.902Z,8.60
2023-04-23T01:51:30.978Z,8.82
2023-04-23T01:53:58.465Z,8.57
2023-04-23T01:56:28.440Z,7.70
2023-04-23T01:58:57.542Z,8.18
2023-04-23T02:01:25.021Z,7.97
2023-04-23T02:03:52.947Z,8.13
2023-04-23T02:06:20.499Z,8.48
2023-04-23T02:08:47.964Z,8.00
2023-04-23T02:11:15.480Z,8.13
2023-04-23T02:13:42.982Z,7.70
2023-04-23T02:16:12.994Z,7.45
2023-04-23T02:18:41.073Z,12.85
2023-04-23T02:21:08.575Z,9.77
2023-04-23T02:23:36.089Z,6.82
2023-04-23T02:26:03.595Z,8.00
2023-04-23T02:28:31.373Z,8.20
2023-04-23T02:30:58.916Z,7.45
2023-04-23T02:33:27.800Z,7.53
2023-04-23T02:35:55.271Z,7.70
2023-04-23T02:38:22.784Z,7.70
2023-04-23T02:40:50.228Z,7.28
2023-04-23T02:43:18.145Z,8.30
2023-04-23T02:45:45.753Z,7.70
2023-04-23T02:48:13.551Z,7.13
2023-04-23T02:50:42.361Z,7.07
2023-04-23T02:53:09.830Z,7.28
2023-04-23T02:55:37.314Z,6.93
2023-04-23T02:58:04.814Z,7.10
2023-04-23T03:00:32.460Z,6.40
2023-04-23T03:03:00.043Z,6.57
2023-04-23T03:05:27.701Z,7.10
2023-04-23T03:07:56.506Z,6.75
2023-04-23T03:10:24.073Z,7.50
2023-04-23T03:12:51.605Z,8.05
2023-04-23T03:15:19.144Z,7.10
2023-04-23T03:17:46.800Z,7.10
2023-04-23T03:20:15.900Z,7.45
2023-04-23T03:22:43.413Z,6.20
2023-04-23T03:25:13.029Z,5.63
2023-04-23T03:27:41.239Z,6.10
2023-04-23T03:30:10.309Z,5.55
2023-04-23T03:32:37.902Z,4.38
2023-04-23T03:35:06.570Z,6.50
2023-04-23T03:37:34.058Z,5.13
2023-04-23T03:40:03.304Z,4.88
2023-04-23T03:42:32.149Z,4.85
2023-04-23T03:44:59.894Z,5.85
2023-04-23T03:47:27.856Z,5.00
2023-04-23T03:49:55.931Z,5.53
2023-04-23T03:52:23.519Z,4.90
2023-04-23T03:54:51.019Z,4.88
2023-04-23T03:57:18.529Z,5.00
2023-04-23T03:59:47.370Z,4.60
2023-04-23T04:02:15.076Z,4.28
2023-04-23T04:04:46.202Z,4.50
2023-04-23T04:07:14.164Z,5.35
2023-04-23T04:09:41.633Z,4.00
2023-04-23T04:12:09.089Z,4.85
2023-04-23T04:14:36.572Z,6.25
2023-04-23T04:17:05.445Z,5.68
2023-04-23T04:19:33.002Z,4.38
2023-04-23T04:22:02.568Z,4.00
2023-04-23T04:24:32.283Z,3.47
2023-04-23T04:27:00.139Z,4.20
2023-04-23T04:29:28.123Z,4.60
2023-04-23T04:31:56.426Z,3.70
2023-04-23T04:34:25.264Z,4.22
2023-04-23T04:36:53.777Z,3.88
2023-04-23T04:39:21.332Z,3.83
2023-04-23T04:41:48.867Z,3.83
2023-04-23T04:44:16.516Z,3.88
2023-04-23T04:46:44.083Z,6.95
2023-04-23T04:49:12.229Z,5.43
2023-04-23T04:51:42.261Z,4.22
2023-04-23T04:54:09.747Z,5.05
2023-04-23T04:56:37.381Z,4.35
2023-04-23T04:59:04.916Z,3.28
2023-04-23T05:01:33.294Z,4.57
2023-04-23T05:04:01.008Z,4.47
2023-04-23T05:06:29.210Z,3.30
2023-04-23T05:08:57.986Z,3.53
2023-04-23T05:11:25.647Z,4.32
2023-04-23T05:13:53.113Z,5.72
2023-04-23T05:16:21.208Z,6.80
2023-04-23T05:18:48.775Z,3.92
2023-04-23T05:21:16.542Z,5.25
2023-04-23T05:23:44.014Z,3.10
2023-04-23T05:26:12.842Z,3.90
2023-04-23T05:28:40.525Z,4.97
2023-04-23T05:31:08.004Z,4.25
2023-04-23T05:33:46.403Z,4.05
2023-04-23T05:36:16.523Z,3.50
2023-04-23T05:38:44.079Z,3.90
2023-04-23T05:41:12.970Z,3.78
2023-04-23T05:43:40.438Z,4.60
2023-04-23T05:46:08.086Z,5.53
2023-04-23T05:48:35.633Z,5.50
2023-04-23T05:51:03.280Z,5.47
2023-04-23T05:53:30.804Z,5.28
2023-04-23T05:55:58.430Z,6.45
2023-04-23T05:58:27.263Z,6.10
2023-04-23T06:00:55.192Z,4.95
2023-04-23T06:03:22.764Z,5.00
2023-04-23T06:05:50.546Z,4.82
2023-04-23T06:08:18.328Z,4.80
2023-04-23T06:10:46.004Z,6.05
2023-04-23T06:13:13.474Z,4.57
2023-04-23T06:15:42.274Z,5.20
2023-04-23T06:18:10.387Z,5.35
2023-04-23T06:20:37.856Z,5.40
2023-04-23T06:23:06.469Z,5.28
2023-04-23T06:25:33.952Z,4.78
2023-04-23T06:28:01.396Z,5.07
2023-04-23T06:30:28.830Z,6.10
2023-04-23T06:32:57.677Z,5.70
2023-04-23T06:35:25.199Z,5.47
2023-04-23T06:37:52.638Z,5.75
2023-04-23T06:40:20.196Z,5.18
2023-04-23T06:42:47.650Z,4.82
2023-04-23T06:45:15.578Z,5.20
2023-04-23T06:47:43.078Z,6.30
2023-04-23T06:50:12.097Z,6.60
2023-04-23T06:52:39.691Z,6.60
2023-04-23T06:55:08.661Z,6.68
2023-04-23T06:57:36.386Z,5.18
2023-04-23T07:00:04.518Z,5.45
2023-04-23T07:02:32.054Z,7.13
2023-04-23T07:04:59.555Z,5.45
2023-04-23T07:07:28.325Z,5.05
2023-04-23T07:09:56.490Z,4.15
2023-04-23T07:12:23.999Z,4.63
2023-04-23T07:14:53.469Z,4.65
2023-04-23T07:17:21.565Z,4.45
2023-04-23T07:19:49.231Z,5.43
2023-04-23T07:22:17.382Z,4.72
2023-04-23T07:24:46.167Z,4.50
2023-04-23T07:27:13.656Z,4.50
2023-04-23T07:29:41.085Z,4.25
2023-04-23T07:32:08.583Z,4.22
2023-04-23T07:34:38.579Z,5.53
2023-04-23T07:37:06.177Z,4.85
2023-04-23T07:39:34.292Z,4.30
2023-04-23T07:42:03.149Z,5.38
2023-04-23T07:44:30.703Z,4.85
2023-04-23T07:46:58.218Z,4.78
2023-04-23T07:49:25.943Z,4.57
2023-04-23T07:51:53.436Z,4.20
2023-04-23T07:54:21.031Z,4.95
2023-04-23T07:56:48.508Z,4.38
2023-04-23T07:59:17.395Z,4.45
2023-04-23T08:01:44.926Z,4.95
2023-04-23T08:04:14.092Z,4.57
2023-04-23T08:06:41.874Z,4.97
2023-04-23T08:09:09.973Z,4.65
2023-04-23T08:11:37.402Z,5.30
2023-04-23T08:14:04.866Z,4.32
2023-04-23T08:16:35.253Z,4.60
2023-04-23T08:19:06.206Z,7.75
2023-04-23T08:21:34.558Z,5.10
2023-04-23T08:24:02.837Z,5.40
2023-04-23T08:26:30.932Z,5.10
2023-04-23T08:29:00.525Z,5.55
2023-04-23T08:31:28.063Z,4.68
2023-04-23T08:33:57.455Z,4.95
2023-04-23T08:36:25.541Z,4.82
2023-04-23T08:38:53.048Z,5.53
2023-04-23T08:41:24.377Z,5.40
2023-04-23T08:43:59.653Z,5.00
2023-04-23T08:46:31.494Z,5.35
2023-04-23T08:49:03.816Z,5.18
2023-04-23T08:51:32.695Z,4.90
2023-04-23T08:54:05.116Z,5.20
2023-04-23T08:56:33.536Z,5.55
2023-04-23T08:59:03.872Z,4.90
2023-04-23T09:01:31.807Z,6.07
2023-04-23T09:04:02.265Z,5.88
2023-04-23T09:06:32.171Z,5.50
2023-04-23T09:09:00.602Z,5.03
2023-04-23T09:11:28.773Z,5.50
2023-04-23T09:13:57.635Z,5.68
2023-04-23T09:16:25.198Z,4.70
2023-04-23T09:18:53.305Z,7.03
2023-04-23T09:21:22.631Z,5.97
2023-04-23T09:23:52.857Z,4.78
2023-04-23T09:26:21.661Z,4.35
2023-04-23T09:28:50.355Z,4.85
2023-04-23T09:31:21.634Z,3.75
2023-04-23T09:33:52.296Z,4.60
2023-04-23T09:36:23.667Z,4.95
2023-04-23T09:38:51.430Z,5.10
2023-04-23T09:41:23.307Z,4.55
2023-04-23T09:43:50.758Z,4.68
2023-04-23T09:46:18.231Z,4.05
2023-04-23T09:48:45.922Z,4.10
2023-04-23T09:51:14.890Z,3.45
2023-04-23T09:53:45.841Z,3.38
2023-04-23T09:56:13.366Z,3.70
2023-04-23T09:58:40.869Z,3.60
2023-04-23T10:01:09.566Z,3.40
2023-04-23T10:03:38.549Z,3.67
2023-04-23T10:06:17.354Z,3.10
2023-04-23T10:08:54.636Z,2.97
2023-04-23T10:11:22.951Z,2.78
2023-04-23T10:13:50.790Z,3.17
2023-04-23T10:16:24.374Z,3.30
2023-04-23T10:18:56.938Z,2.90
2023-04-23T10:21:33.983Z,3.20
2023-04-23T10:24:07.227Z,3.20
2023-04-23T10:26:36.429Z,3.45
2023-04-23T10:29:06.181Z,3.58
2023-04-23T10:31:34.718Z,3.15
2023-04-23T10:34:05.930Z,2.80
2023-04-23T10:36:34.625Z,3.47
2023-04-23T10:39:09.364Z,3.28
2023-04-23T10:41:40.633Z,2.70
2023-04-23T10:44:12.847Z,2.83
2023-04-23T10:46:52.078Z,2.72
2023-04-23T10:49:19.710Z,2.75
2023-04-23T10:52:18.045Z,2.85
2023-04-23T10:54:36.366Z,2.47
2023-04-23T10:57:07.162Z,2.35
2023-04-23T10:59:35.854Z,2.78
2023-04-23T11:02:08.246Z,3.08
2023-04-23T11:04:38.021Z,2.28
2023-04-23T11:07:07.665Z,2.38
2023-04-23T11:09:40.732Z,2.78
2023-04-23T11:12:12.492Z,2.25
2023-04-23T11:14:47.446Z,2.85
2023-04-23T11:17:16.752Z,3.67
2023-04-23T11:20:11.121Z,2.92
2023-04-23T11:22:40.078Z,6.38
2023-04-23T11:25:11.102Z,2.70
2023-04-23T11:27:43.138Z,2.78
2023-04-23T11:30:14.204Z,2.83
2023-04-23T11:32:42.201Z,2.45
2023-04-23T11:35:13.610Z,2.25
2023-04-23T11:37:42.211Z,2.85
2023-04-23T11:40:11.412Z,2.83
2023-04-23T11:42:46.605Z,2.33
2023-04-23T11:45:21.294Z,2.95
2023-04-23T11:47:50.614Z,2.15
2023-04-23T11:50:19.333Z,2.13
2023-04-23T11:52:47.188Z,2.40
2023-04-23T11:55:16.348Z,2.30
2023-04-23T11:57:46.869Z,2.35
2023-04-23T12:00:17.219Z,2.40
2023-04-23T12:02:54.996Z,2.40
2023-04-23T12:05:24.407Z,2.65
2023-04-23T12:07:52.872Z,2.50
2023-04-23T12:10:21.249Z,2.72
2023-04-23T12:12:53.836Z,2.10
2023-04-23T12:15:21.491Z,2.25
2023-04-23T12:17:50.098Z,2.60
2023-04-23T12:20:19.720Z,2.47
2023-04-23T12:22:47.232Z,3.20
2023-04-23T12:25:15.970Z,2.55
2023-04-23T12:27:45.645Z,2.83
2023-04-23T12:30:14.981Z,3.08
2023-04-23T12:32:42.570Z,3.05
2023-04-23T12:35:11.342Z,3.42
2023-04-23T12:37:38.856Z,3.10
2023-04-23T12:40:08.090Z,2.67
2023-04-23T12:42:36.743Z,2.08
2023-04-23T12:45:09.337Z,2.10
2023-04-23T12:47:38.342Z,2.17
2023-04-23T12:50:06.827Z,2.20
2023-04-23T12:52:34.283Z,2.10
2023-04-23T12:55:01.752Z,2.67
2023-04-23T12:57:29.214Z,3.15
2023-04-23T12:59:56.672Z,3.25
2023-04-23T13:02:25.740Z,3.30
2023-04-23T13:05:00.558Z,3.97
2023-04-23T13:07:28.117Z,3.25
2023-04-23T13:09:57.207Z,3.13
2023-04-23T13:12:24.709Z,2.72
2023-04-23T13:14:52.173Z,2.25
2023-04-23T13:17:19.655Z,2.40
2023-04-23T13:19:47.109Z,3.20
2023-04-23T13:22:15.896Z,3.05
2023-04-23T13:24:43.530Z,2.45
2023-04-23T13:27:11.973Z,2.80
2023-04-23T13:29:40.719Z,2.95
2023-04-23T13:32:08.570Z,4.07
2023-04-23T13:34:36.017Z,3.03
2023-04-23T13:37:05.704Z,3.30
2023-04-23T13:39:34.532Z,3.45
2023-04-23T13:42:09.545Z,2.92
2023-04-23T13:44:37.253Z,3.03
2023-04-23T13:47:04.850Z,3.30
2023-04-23T13:49:32.353Z,3.10
2023-04-23T13:52:04.206Z,2.90
2023-04-23T13:54:31.696Z,3.10
2023-04-23T13:57:00.957Z,3.13
2023-04-23T13:59:28.465Z,5.18
2023-04-23T14:01:55.935Z,3.47
2023-04-23T14:04:24.045Z,3.10
2023-04-23T14:06:51.817Z,2.92
2023-04-23T14:09:22.050Z,2.97
2023-04-23T14:11:49.653Z,3.28
2023-04-23T14:14:18.798Z,3.47
2023-04-23T14:16:46.265Z,3.35
2023-04-23T14:19:13.774Z,3.40
2023-04-23T14:21:41.709Z,3.20
2023-04-23T14:24:13.318Z,3.38
2023-04-23T14:26:48.602Z,3.15
2023-04-23T14:29:26.228Z,3.03
2023-04-23T14:31:53.886Z,3.33
2023-04-23T14:34:22.105Z,2.55
2023-04-23T14:36:49.791Z,2.33
2023-04-23T14:39:17.577Z,2.70
2023-04-23T14:41:45.093Z,1.85
2023-04-23T14:44:12.594Z,3.03
2023-04-23T14:46:41.540Z,2.00
2023-04-23T14:49:09.029Z,2.90
2023-04-23T14:51:37.416Z,2.25
2023-04-23T14:54:05.357Z,2.42
2023-04-23T14:56:32.874Z,2.85
2023-04-23T14:59:00.341Z,1.90
2023-04-23T15:01:28.265Z,2.40
2023-04-23T15:03:57.309Z,2.35
2023-04-23T15:06:24.841Z,2.30
2023-04-23T15:08:52.287Z,2.45
2023-04-23T15:11:19.966Z,3.03
2023-04-23T15:13:51.304Z,2.80
2023-04-23T15:16:47.477Z,3.05
2023-04-23T15:19:18.885Z,3.72
2023-04-23T15:21:46.816Z,3.25
2023-04-23T15:24:14.665Z,3.33
2023-04-23T15:26:42.333Z,3.58
2023-04-23T15:29:10.511Z,3.42
2023-04-23T15:31:38.638Z,3.10
2023-04-23T15:34:08.954Z,3.75
2023-04-23T15:36:38.520Z,4.03
2023-04-23T15:39:06.976Z,3.60
2023-04-23T15:41:37.502Z,3.00
2023-04-23T15:44:10.702Z,3.08
2023-04-23T15:46:38.350Z,2.70
2023-04-23T15:49:05.897Z,2.45
2023-04-23T15:51:33.762Z,2.47
2023-04-23T15:54:02.894Z,2.60
2023-04-23T15:56:30.419Z,2.60
2023-04-23T15:58:57.931Z,2.88
2023-04-23T16:01:27.295Z,3.13
2023-04-23T16:04:09.631Z,2.97
2023-04-23T16:06:38.261Z,2.63
2023-04-23T16:09:08.180Z,2.90
2023-04-23T16:11:36.456Z,2.67
2023-04-23T16:14:04.826Z,3.25
2023-04-23T16:16:32.539Z,2.40
2023-04-23T16:19:00.122Z,2.75
2023-04-23T16:21:28.350Z,3.47
2023-04-23T16:23:55.932Z,2.67
2023-04-23T16:26:24.813Z,2.92
2023-04-23T16:29:05.697Z,3.45
2023-04-23T16:31:39.247Z,3.45
2023-04-23T16:34:06.955Z,3.15
2023-04-23T16:36:34.646Z,2.38
2023-04-23T16:39:02.137Z,2.63
2023-04-23T16:41:31.557Z,2.72
2023-04-23T16:43:59.268Z,2.97
2023-04-23T16:46:30.001Z,2.58
2023-04-23T16:48:58.216Z,3.45
2023-04-23T16:51:26.361Z,3.03
2023-04-23T16:53:54.004Z,3.15
2023-04-23T16:56:21.634Z,3.38
2023-04-23T16:58:50.559Z,3.70
2023-04-23T17:01:18.499Z,4.35
2023-04-23T17:03:46.121Z,4.90
2023-04-23T17:06:29.440Z,4.75
2023-04-23T17:08:58.592Z,4.97
2023-04-23T17:11:26.787Z,3.88
2023-04-23T17:13:56.308Z,4.05
2023-04-23T17:16:25.673Z,4.10
2023-04-23T17:18:53.248Z,3.83
2023-04-23T17:21:20.916Z,3.47
2023-04-23T17:23:48.680Z,3.20
2023-04-23T17:26:16.439Z,8.80
2023-04-23T17:28:43.928Z,3.75
2023-04-23T17:31:12.858Z,4.65
2023-04-23T17:33:43.389Z,4.18
2023-04-23T17:36:11.198Z,3.88
2023-04-23T17:38:38.688Z,4.10
2023-04-23T17:41:06.449Z,3.97
2023-04-23T17:43:34.919Z,3.75
2023-04-23T17:46:03.085Z,4.40
2023-04-23T17:48:32.095Z,6.82
2023-04-23T17:50:59.696Z,4.80
2023-04-23T17:53:27.158Z,4.15
2023-04-23T17:55:58.500Z,4.43
2023-04-23T17:58:26.732Z,4.72
2023-04-23T18:00:54.334Z,4.72
2023-04-23T18:03:22.426Z,4.05
2023-04-23T18:05:51.531Z,4.90
2023-04-23T18:08:19.529Z,4.28
2023-04-23T18:10:47.166Z,4.90
2023-04-23T18:13:14.998Z,5.03
2023-04-23T18:15:43.401Z,7.05
2023-04-23T18:18:11.430Z,5.25
2023-04-23T18:20:40.157Z,7.63
2023-04-23T18:23:09.631Z,5.97
2023-04-23T18:25:37.173Z,6.28
2023-04-23T18:28:04.754Z,6.80
2023-04-23T18:30:32.420Z,7.60
2023-04-23T18:33:07.601Z,6.50
2023-04-23T18:35:35.080Z,7.97
2023-04-23T18:38:10.957Z,7.75
2023-04-23T18:40:39.763Z,7.78
2023-04-23T18:43:07.252Z,7.45
2023-04-23T18:45:34.689Z,5.53
2023-04-23T18:48:06.203Z,6.32
2023-04-23T18:50:41.951Z,5.68
2023-04-23T18:53:09.783Z,5.32
2023-04-23T18:55:37.560Z,7.15
2023-04-23T18:58:06.390Z,6.90
2023-04-23T19:00:33.943Z,6.32
2023-04-23T19:03:06.511Z,7.88
2023-04-23T19:05:36.929Z,6.50
2023-04-23T19:08:04.475Z,7.47
2023-04-23T19:10:31.935Z,7.75
2023-04-23T19:12:59.569Z,7.80
2023-04-23T19:15:28.473Z,7.57
2023-04-23T19:17:56.088Z,7.53
2023-04-23T19:20:23.867Z,10.25
2023-04-23T19:22:51.374Z,7.85
2023-04-23T19:25:18.920Z,8.15
2023-04-23T19:27:46.401Z,7.70
2023-04-23T19:30:14.218Z,8.15
2023-04-23T19:32:43.102Z,7.85
2023-04-23T19:35:11.590Z,7.40
2023-04-23T19:37:39.077Z,7.15
2023-04-23T19:40:07.877Z,7.40
2023-04-23T19:42:35.391Z,7.03
2023-04-23T19:45:03.122Z,7.03
2023-04-23T19:47:32.386Z,7.50
2023-04-23T19:50:01.396Z,5.78
2023-04-23T19:52:28.916Z,7.22
2023-04-23T19:54:56.399Z,4.18
2023-04-23T19:57:23.877Z,3.10
2023-04-23T19:59:51.380Z,17.27
2023-04-23T20:02:19.261Z,3.42
2023-04-23T20:04:47.000Z,8.68
2023-04-23T20:07:16.926Z,4.97
2023-04-23T20:09:44.732Z,6.80
2023-04-23T20:12:14.138Z,8.88
2023-04-23T20:14:42.560Z,4.57
2023-04-23T20:17:10.448Z,3.70
2023-04-23T20:19:38.317Z,3.80
2023-04-23T20:22:06.779Z,5.20
2023-04-23T20:24:38.020Z,5.22
2023-04-23T20:27:06.867Z,9.02
2023-04-23T20:29:34.397Z,8.02
2023-04-23T20:32:01.983Z,5.75
2023-04-23T20:34:29.444Z,6.93
2023-04-23T20:36:58.748Z,8.00
2023-04-23T20:39:26.325Z,6.30
2023-04-23T20:41:57.737Z,7.53
2023-04-23T20:44:25.758Z,7.57
2023-04-23T20:46:53.413Z,9.70
2023-04-23T20:49:21.384Z,10.85
2023-04-23T20:51:48.903Z,7.68
2023-04-23T20:54:16.406Z,8.30
2023-04-23T20:56:43.942Z,6.35
2023-04-23T20:59:12.757Z,5.97
2023-04-23T21:01:40.375Z,5.80
2023-04-23T21:04:08.088Z,5.65
2023-04-23T21:06:35.974Z,6.82
2023-04-23T21:09:04.590Z,6.30
2023-04-23T21:11:33.244Z,6.15
2023-04-23T21:14:01.551Z,7.00
2023-04-23T21:16:30.457Z,7.38
2023-04-23T21:18:57.928Z,8.68
2023-04-23T21:21:27.905Z,7.57
2023-04-23T21:23:55.780Z,7.53
2023-04-23T21:26:23.555Z,7.55
2023-04-23T21:28:51.131Z,7.07
2023-04-23T21:31:28.318Z,8.32
2023-04-23T21:33:57.148Z,8.98
2023-04-23T21:36:24.586Z,7.45
2023-04-23T21:38:53.004Z,7.85
2023-04-23T21:41:20.598Z,9.32
2023-04-23T21:43:48.131Z,7.40
2023-04-23T21:46:16.193Z,8.45
2023-04-23T21:48:43.758Z,10.98
2023-04-23T21:51:13.673Z,9.05
2023-04-23T21:53:41.220Z,8.30
2023-04-23T21:56:08.760Z,7.32
2023-04-23T21:58:36.275Z,9.50
2023-04-23T22:01:03.962Z,8.82
2023-04-23T22:03:38.744Z,7.65
2023-04-23T22:06:09.415Z,7.57
2023-04-23T22:08:39.398Z,7.05
2023-04-23T22:11:07.916Z,8.35
2023-04-23T22:13:36.081Z,8.50
2023-04-23T22:16:06.579Z,6.07
2023-04-23T22:18:38.769Z,8.05
2023-04-23T22:21:06.462Z,7.70
2023-04-23T22:23:34.020Z,7.70
2023-04-23T22:26:02.851Z,9.25
2023-04-23T22:28:30.337Z,9.52
2023-04-23T22:30:57.850Z,8.80
2023-04-23T22:33:26.452Z,7.63
2023-04-23T22:35:54.241Z,8.90
2023-04-23T22:38:21.869Z,7.28
2023-04-23T22:40:49.358Z,7.10
2023-04-23T22:43:18.161Z,9.68
2023-04-23T22:45:45.706Z,9.68
2023-04-23T22:48:13.267Z,7.95
2023-04-23T22:50:42.635Z,8.00
2023-04-23T22:53:10.139Z,8.70
2023-04-23T22:55:37.786Z,6.55
2023-04-23T22:58:05.326Z,9.18
2023-04-23T23:00:34.185Z,7.18
2023-04-23T23:03:01.786Z,6.75
2023-04-23T23:05:29.401Z,6.63
2023-04-23T23:07:56.973Z,5.65
2023-04-23T23:10:24.565Z,5.60
2023-04-23T23:12:52.497Z,6.22
2023-04-23T23:15:20.001Z,5.93
2023-04-23T23:17:48.857Z,5.70
2023-04-23T23:20:16.372Z,5.35
2023-04-23T23:22:43.949Z,7.18
2023-04-23T23:25:11.715Z,5.50
2023-04-23T23:27:39.235Z,5.85
2023-04-23T23:30:09.447Z,6.35
2023-04-23T23:32:37.368Z,6.43
2023-04-23T23:35:08.132Z,7.70
2023-04-23T23:37:35.996Z,8.45
2023-04-23T23:40:05.476Z,9.32
2023-04-23T23:42:32.987Z,9.13
2023-04-23T23:45:00.461Z,7.47
2023-04-23T23:47:28.021Z,6.22
2023-04-23T23:49:55.590Z,7.50
2023-04-23T23:52:24.402Z,7.18
2023-04-23T23:54:51.911Z,7.38
2023-04-23T23:57:19.402Z,6.95
2023-04-23T23:59:47.002Z,7.20
